Leuven Template:n sääsivut:

Template documentation
and downloads

And another site



Tuuli Alkaa: 21-10-2018 23:00 Loppuu: 22-10-2018 17:00 varoitus: Tuuli Taso: Keltainen info button

Säätiedot lähimmiltä METAR asemilta

   
EBAW - Antwerp
Päivitetty: 21-10-2018 02:20
Sumua, Selkeää  
Sumua, Selkeää  
   Tuuli: Etelä 1.9 km/h
Tuuli: Etelä 1.9 km/h
Lämpötila: 5°C
Kastepiste: 3°C
Kosteus: 87%
Ilmanpaine: 1031 mb
Pilvisyys: Selkeää
Näkyvyys: 5 km
Pilvitiedot: Selkeää
EBAW 202320Z AUTO 18001KT 4500 BR NCD 05/03 Q1031
EBLG - Liège
Päivitetty: 21-10-2018 02:20
Sumua, Puolipilvistä  
Sumua, Puolipilvistä  
   Tuuli: Etelä 1.9 km/h
Tuuli: Etelä 1.9 km/h
Lämpötila: 7°C
Kastepiste: 6°C
Kosteus: 93%
Ilmanpaine: 1030 mb
Pilvisyys: Puolipilvistä
Näkyvyys: 5 km
Pilvitiedot: Puolipilvistä
EBLG 202320Z 18001KT 5000 BR NSC 07/06 Q1030 TEMPO 2500
EBCV - Mons/Bergen
Päivitetty: 21-10-2018 02:40
Selkeää  
Selkeää  
   Tuuli: vaihtelee 1.9 km/h
Tuuli: vaihtelee 1.9 km/h
Lämpötila: 4°C
Kastepiste: 3°C
Kosteus: 93%
Ilmanpaine: 1031 mb
Pilvisyys: Selkeää
Näkyvyys: 4 km
Pilvitiedot: Selkeää
EBCV 202340Z AUTO VRB01KT 4400 NCD 04/03 Q1031 GRN
EHBK - Maastricht
Päivitetty: 21-10-2018 02:25
Selkeää  
Selkeää  
   Tuuli: Kaakko 3.7 km/h
Tuuli: Kaakko 3.7 km/h
Lämpötila: 6°C
Kastepiste: 5°C
Kosteus: 93%
Ilmanpaine: 1030 mb
Pilvisyys: Selkeää
Näkyvyys: 7 km
Pilvitiedot: Selkeää
EHBK 202325Z AUTO 13002KT 7000 NCD 06/05 Q1030
ELLX - Luxemburg
Päivitetty: 21-10-2018 02:20
Selkeää  
Selkeää  
   Tuuli: Koillinen 16.7 km/h
Tuuli: Koillinen 16.7 km/h
Lämpötila: 9°C
Tuulen hyytävyys: 7°C
Kastepiste: 5°C
Kosteus: 76%
Ilmanpaine: 1029 mb
Näkyvyys: enemmän kuin 10 km
Pilvitiedot: Selkeää
ELLX 202320Z 04009KT CAVOK 09/05 Q1029 NOSIG
EBOS - Oostende
Päivitetty: 21-10-2018 02:20
Sumua, Puolipilvistä  
Sumua, Puolipilvistä  
   Tuuli: Eteläkaakko 3.7 km/h
Tuuli: Eteläkaakko 3.7 km/h
Lämpötila: 7°C
Kastepiste: 5°C
Kosteus: 87%
Ilmanpaine: 1031 mb
Pilvisyys: Puolipilvistä
Näkyvyys: 3 km
Pilvitiedot: Puolipilvistä
EBOS 202320Z 16002KT 2500 BR NSC 07/05 Q1031 TEMPO 1200 BR

Alkuperäinen skripti  Saratoga-weather.org Sovitettu myös templatelle  Weerstation Leuven